Time;durP1;ratioP1;P1;durP2;ratioP2;P2;SDS_P1;SDS_P2;PMS_P1;PMS_P2;Temp;Humidity;BMP_temperature;BMP_pressure;BME280_temperature;BME280_humidity;BME280_pressure;Samples;Min_cycle;Max_cycle;Signal;HPM_P1;HPM_P2
2022/03/16 00:00:36;;;;;;;21.33;19.02;;;9.60;97.60;;;;;;5034289;28;20045;-45
2022/03/16 00:03:02;;;;;;;21.45;19.00;;;9.50;97.60;;;;;;5037590;28;20463;-46
2022/03/16 00:05:29;;;;;;;22.38;20.00;;;9.50;97.70;;;;;;5034258;28;20531;-46
2022/03/16 00:07:56;;;;;;;21.77;19.45;;;9.50;97.70;;;;;;5034125;28;20049;-44
2022/03/16 00:10:23;;;;;;;22.20;19.77;;;9.50;97.70;;;;;;5034081;28;20073;-42
2022/03/16 00:12:49;;;;;;;22.90;20.48;;;9.50;97.70;;;;;;5032884;28;20041;-45
2022/03/16 00:15:16;;;;;;;23.52;20.33;;;9.50;97.80;;;;;;5034085;28;20124;-44
2022/03/16 00:17:43;;;;;;;22.42;20.10;;;9.40;97.90;;;;;;5034000;28;20120;-43
2022/03/16 00:20:09;;;;;;;22.25;19.85;;;9.40;97.90;;;;;;5033640;28;20064;-41
2022/03/16 00:22:36;;;;;;;23.92;21.27;;;9.40;98.00;;;;;;5034058;28;20443;-42
2022/03/16 00:25:05;;;;;;;23.50;21.08;;;9.30;98.10;;;;;;5033672;28;20045;-43
2022/03/16 00:27:32;;;;;;;24.30;21.10;;;9.30;98.20;;;;;;5032486;28;20480;-43
2022/03/16 00:29:59;;;;;;;24.98;21.20;;;9.30;98.20;;;;;;5033495;28;20042;-44
2022/03/16 00:32:26;;;;;;;24.25;20.88;;;9.20;98.30;;;;;;5033390;28;20088;-45
2022/03/16 00:34:54;;;;;;;23.77;21.25;;;9.20;98.40;;;;;;5036347;28;20442;-46
2022/03/16 00:37:20;;;;;;;24.45;21.60;;;9.20;98.40;;;;;;5033721;28;20109;-44
2022/03/16 00:39:47;;;;;;;24.50;21.20;;;9.20;98.50;;;;;;5033582;28;20485;-45
2022/03/16 00:42:14;;;;;;;24.17;21.60;;;9.20;98.50;;;;;;5032089;28;20107;-43
2022/03/16 00:44:41;;;;;;;23.48;21.15;;;9.20;98.60;;;;;;5032511;28;20049;-43
2022/03/16 08:14:11;;;;;;;26.20;23.40;;;9.80;98.50;;;;;;5069018;28;20429;-41
2022/03/16 08:16:38;;;;;;;29.30;24.05;;;9.80;98.60;;;;;;5063894;28;20034;-44
2022/03/16 08:19:05;;;;;;;25.08;22.55;;;9.90;98.50;;;;;;5050395;28;20037;-48
2022/03/16 08:21:32;;;;;;;24.05;21.65;;;10.00;98.30;;;;;;5069876;28;20052;-43
2022/03/16 08:23:59;;;;;;;24.30;21.70;;;10.10;98.10;;;;;;5068961;28;20071;-49
2022/03/16 08:26:26;;;;;;;23.63;21.13;;;10.20;97.90;;;;;;5068271;28;20041;-47
2022/03/16 08:28:52;;;;;;;26.35;20.17;;;10.30;97.80;;;;;;5064253;28;20463;-48
2022/03/16 08:31:19;;;;;;;25.30;22.15;;;10.30;97.60;;;;;;5051033;28;20049;-45
2022/03/16 08:33:48;;;;;;;22.70;20.40;;;10.40;97.50;;;;;;5066644;28;20072;-44
2022/03/16 08:36:14;;;;;;;22.40;19.65;;;10.50;97.50;;;;;;5069578;28;20432;-47
2022/03/16 08:38:41;;;;;;;20.88;18.77;;;10.50;97.40;;;;;;5069575;28;20388;-44
2022/03/16 08:41:10;;;;;;;21.90;19.42;;;10.50;97.30;;;;;;5057015;28;20063;-44
2022/03/16 08:43:37;;;;;;;22.38;19.23;;;10.50;97.20;;;;;;5050264;28;20037;-47
2022/03/16 08:46:04;;;;;;;21.17;18.85;;;10.60;97.20;;;;;;5049937;28;20503;-42
2022/03/16 08:48:30;;;;;;;20.75;18.58;;;10.60;97.10;;;;;;5050236;28;20033;-44
2022/03/16 08:50:57;;;;;;;20.52;18.42;;;10.70;97.10;;;;;;5050304;28;20365;-44
2022/03/16 08:53:24;;;;;;;20.92;18.50;;;10.70;97.10;;;;;;5055102;28;20041;-42
2022/03/16 08:55:51;;;;;;;19.23;17.23;;;10.60;97.00;;;;;;5050020;28;20091;-42
2022/03/16 08:58:18;;;;;;;19.42;17.33;;;10.70;97.10;;;;;;5061946;28;20044;-45
2022/03/16 09:00:45;;;;;;;19.92;18.02;;;10.70;97.00;;;;;;5068088;28;20035;-45
2022/03/16 09:03:12;;;;;;;20.75;18.65;;;10.70;97.20;;;;;;5049903;28;20120;-42
2022/03/16 09:05:39;;;;;;;20.63;18.52;;;10.70;97.00;;;;;;5054444;28;20048;-43
2022/03/16 09:08:05;;;;;;;19.73;17.70;;;10.70;97.10;;;;;;5062720;28;20048;-43
2022/03/16 09:10:32;;;;;;;21.50;17.85;;;10.70;97.00;;;;;;5066460;28;20045;-42
2022/03/16 09:12:59;;;;;;;20.92;17.90;;;10.70;97.00;;;;;;5049295;28;20409;-44
2022/03/16 09:15:26;;;;;;;20.42;17.98;;;10.70;97.00;;;;;;5049668;28;20041;-41
2022/03/16 09:17:52;;;;;;;20.05;17.70;;;10.80;97.10;;;;;;5068448;28;20065;-45
2022/03/16 09:20:19;;;;;;;20.35;17.83;;;10.80;97.00;;;;;;5063886;28;20041;-43
2022/03/16 09:22:46;;;;;;;18.90;17.00;;;10.80;96.90;;;;;;5053509;28;20045;-47
2022/03/16 09:25:13;;;;;;;19.25;17.20;;;10.80;96.90;;;;;;5055573;28;20076;-44
2022/03/16 09:27:40;;;;;;;19.33;17.38;;;10.80;96.80;;;;;;5055099;28;20056;-42
2022/03/16 09:30:06;;;;;;;19.90;17.77;;;10.80;96.90;;;;;;5035682;28;20065;-45
2022/03/16 09:32:33;;;;;;;18.45;16.65;;;10.80;96.90;;;;;;5035275;28;20571;-44
2022/03/16 09:35:00;;;;;;;21.98;17.73;;;10.80;96.90;;;;;;5035557;28;20046;-41
2022/03/16 09:37:27;;;;;;;19.50;17.42;;;10.80;97.00;;;;;;5035725;28;20042;-42
2022/03/16 09:39:54;;;;;;;22.38;18.05;;;10.90;97.00;;;;;;5035487;28;20041;-43
2022/03/16 09:42:21;;;;;;;19.63;17.42;;;10.90;96.90;;;;;;5054478;28;20435;-41
2022/03/16 09:44:47;;;;;;;19.98;17.88;;;11.00;96.70;;;;;;5054920;28;20345;-43
2022/03/16 09:47:14;;;;;;;19.92;17.80;;;11.00;96.70;;;;;;5046997;28;20088;-45
2022/03/16 09:49:41;;;;;;;19.77;16.73;;;11.10;96.60;;;;;;5041214;28;20048;-42
2022/03/16 09:52:09;;;;;;;18.80;16.83;;;11.10;96.60;;;;;;5047673;28;20041;-43
2022/03/16 09:54:36;;;;;;;20.27;17.70;;;11.10;96.50;;;;;;5054785;28;20033;-43
2022/03/16 09:57:03;;;;;;;19.50;17.27;;;11.10;96.40;;;;;;5054975;28;20107;-41
2022/03/16 09:59:30;;;;;;;21.58;18.08;;;11.10;96.60;;;;;;5053608;28;20106;-41
2022/03/16 10:01:57;;;;;;;19.73;17.48;;;11.10;96.70;;;;;;5054804;28;20116;-42
2022/03/16 10:04:23;;;;;;;18.63;16.63;;;11.10;96.70;;;;;;5054671;28;20045;-44
2022/03/16 10:06:52;;;;;;;19.45;17.45;;;11.10;96.60;;;;;;5054631;28;20084;-44
2022/03/16 10:14:49;;;;;;;19.83;16.33;;;11.10;96.70;;;;;;5054159;28;20044;-48
2022/03/16 10:20:02;;;;;;;20.13;16.88;;;11.20;96.70;;;;;;5044705;28;20045;-46
2022/03/16 10:22:31;;;;;;;18.35;16.45;;;11.20;96.70;;;;;;5049590;28;20100;-43
2022/03/16 10:24:57;;;;;;;20.80;17.13;;;11.20;97.00;;;;;;5034489;28;20046;-42
2022/03/16 10:27:24;;;;;;;22.42;17.15;;;11.10;96.80;;;;;;5036871;28;20102;-49
2022/03/16 10:29:51;;;;;;;21.88;16.63;;;11.10;96.80;;;;;;5051573;28;20048;-46
2022/03/16 10:32:18;;;;;;;19.10;17.17;;;11.10;96.80;;;;;;5052859;28;20037;-45
2022/03/16 10:34:44;;;;;;;21.00;17.10;;;11.10;96.80;;;;;;5052607;28;20041;-42
2022/03/16 10:37:11;;;;;;;19.48;16.95;;;11.10;96.90;;;;;;5051214;28;20068;-44
2022/03/16 10:39:38;;;;;;;21.85;16.83;;;11.10;96.90;;;;;;5035322;28;20048;-45
2022/03/16 10:47:37;;;;;;;17.65;15.80;;;11.30;96.90;;;;;;5052383;28;20391;-42
2022/03/16 10:50:07;;;;;;;18.40;16.42;;;11.30;96.80;;;;;;5034989;28;20463;-44
2022/03/16 10:52:34;;;;;;;17.98;16.17;;;11.30;96.80;;;;;;5034031;28;20095;-44
2022/03/16 10:55:03;;;;;;;19.45;16.10;;;11.30;96.80;;;;;;5038381;28;20408;-44
2022/03/16 10:57:29;;;;;;;19.05;16.77;;;11.30;96.70;;;;;;5039646;28;20481;-41
2022/03/16 10:59:56;;;;;;;22.52;16.00;;;11.40;96.80;;;;;;5034057;28;20552;-45
2022/03/16 11:02:23;;;;;;;20.45;17.13;;;11.40;96.60;;;;;;5033702;28;20033;-45
2022/03/16 11:04:50;;;;;;;19.10;16.27;;;11.40;96.80;;;;;;5035747;28;20071;-44
2022/03/16 11:07:18;;;;;;;20.75;17.13;;;11.40;96.70;;;;;;5033950;28;20489;-49
2022/03/16 11:09:45;;;;;;;18.92;16.30;;;11.50;96.70;;;;;;5032568;28;20053;-45
2022/03/16 11:14:57;;;;;;;19.15;16.40;;;11.60;96.40;;;;;;5048065;28;20045;-50
2022/03/16 11:17:24;;;;;;;19.13;16.85;;;11.60;96.50;;;;;;5052915;28;20103;-47
2022/03/16 11:19:52;;;;;;;20.98;16.90;;;11.70;96.50;;;;;;5052263;28;20041;-46
2022/03/16 11:22:19;;;;;;;25.73;17.15;;;11.80;96.40;;;;;;5053395;28;20369;-47
2022/03/16 11:24:45;;;;;;;21.58;17.48;;;11.90;96.20;;;;;;5053045;28;20045;-50
2022/03/16 11:27:13;;;;;;;19.60;16.40;;;12.00;96.20;;;;;;5053070;28;20492;-50
2022/03/16 11:29:40;;;;;;;18.45;16.40;;;12.10;95.90;;;;;;5045391;28;20041;-45
2022/03/16 11:32:06;;;;;;;18.98;15.60;;;12.20;95.60;;;;;;5033965;28;20044;-53
2022/03/16 11:34:35;;;;;;;17.63;15.18;;;12.20;95.60;;;;;;5034731;28;20362;-47
2022/03/16 11:37:02;;;;;;;17.85;15.95;;;12.20;95.60;;;;;;5053061;28;20076;-47
2022/03/16 11:39:29;;;;;;;17.20;15.43;;;12.30;95.50;;;;;;5051663;28;20041;-47
2022/03/16 11:41:56;;;;;;;18.38;15.73;;;12.30;95.40;;;;;;5035341;28;20518;-45
2022/03/16 11:44:25;;;;;;;19.08;15.93;;;12.30;95.30;;;;;;5038828;28;20481;-47
2022/03/16 11:46:53;;;;;;;17.17;15.35;;;12.30;95.40;;;;;;5041022;28;20049;-46
2022/03/16 11:49:20;;;;;;;20.58;16.05;;;12.30;95.30;;;;;;5044738;28;20067;-46
2022/03/16 11:51:47;;;;;;;22.05;15.73;;;12.30;95.40;;;;;;5034952;28;20041;-52
2022/03/16 11:54:14;;;;;;;20.25;16.05;;;12.40;95.30;;;;;;5033613;28;20038;-48
2022/03/16 11:56:41;;;;;;;17.83;15.98;;;12.30;95.30;;;;;;5034910;28;20042;-52
2022/03/16 11:59:09;;;;;;;24.50;16.08;;;12.30;95.20;;;;;;5040057;28;20068;-45
2022/03/16 12:01:39;;;;;;;18.20;16.30;;;12.30;95.40;;;;;;5042225;28;20116;-47
2022/03/16 12:04:12;;;;;;;21.60;15.70;;;12.30;95.30;;;;;;5033764;28;20464;-48
2022/03/16 12:06:40;;;;;;;22.35;15.82;;;12.30;95.30;;;;;;5032231;28;20053;-51
2022/03/16 12:09:07;;;;;;;18.88;15.55;;;12.30;95.40;;;;;;5044124;28;20068;-45
2022/03/16 12:14:19;;;;;;;17.90;15.38;;;12.50;95.20;;;;;;5044647;28;20095;-48
2022/03/16 12:16:46;;;;;;;21.83;15.77;;;12.50;95.10;;;;;;5034877;28;20449;-47
2022/03/16 12:19:13;;;;;;;19.10;15.45;;;12.60;95.00;;;;;;5036285;28;20102;-53
2022/03/16 12:21:40;;;;;;;18.13;16.25;;;12.60;95.00;;;;;;5035033;28;20103;-52
2022/03/16 12:28:55;;;;;;;;;;;12.50;94.90;;;;;;5046812;28;20075;-51
2022/03/16 12:29:39;;;;;;;21.05;16.02;;;12.50;94.90;;;;;;5036558;28;19921;-51
2022/03/16 12:32:05;;;;;;;20.70;15.63;;;12.40;95.10;;;;;;5033385;28;20124;-46
2022/03/16 12:34:32;;;;;;;20.30;16.35;;;12.40;95.10;;;;;;5032852;28;20034;-48
2022/03/16 12:36:59;;;;;;;18.70;16.33;;;12.40;95.50;;;;;;5033103;28;20100;-46
2022/03/16 12:39:27;;;;;;;19.75;17.35;;;12.30;95.40;;;;;;5032025;28;20049;-50
2022/03/16 12:44:45;;;;;;;21.10;17.48;;;12.30;95.40;;;;;;5033156;28;20061;-46
2022/03/16 12:47:12;;;;;;;20.35;18.00;;;12.30;95.50;;;;;;5032870;28;20044;-48
2022/03/16 12:49:39;;;;;;;21.10;17.83;;;12.30;95.50;;;;;;5045334;28;20048;-50
2022/03/16 12:52:06;;;;;;;20.45;17.50;;;12.30;95.60;;;;;;5051974;28;20048;-50
2022/03/16 12:54:32;;;;;;;22.70;17.65;;;12.30;95.70;;;;;;5039671;28;20070;-45
2022/03/16 12:57:02;;;;;;;20.77;17.15;;;12.30;95.80;;;;;;5040889;28;20057;-48
2022/03/16 12:59:29;;;;;;;22.60;17.50;;;12.30;95.80;;;;;;5040036;28;20041;-44
2022/03/16 13:01:56;;;;;;;21.67;17.25;;;12.30;96.00;;;;;;5055796;28;20047;-46
2022/03/16 13:04:23;;;;;;;18.92;17.00;;;12.30;96.20;;;;;;5055824;28;20124;-47
2022/03/16 13:06:50;;;;;;;19.33;17.35;;;12.40;96.40;;;;;;5055701;28;20051;-47
2022/03/16 13:09:17;;;;;;;19.30;17.35;;;12.40;96.50;;;;;;5036863;28;20038;-46
2022/03/16 13:11:43;;;;;;;21.13;17.52;;;12.40;96.70;;;;;;5036313;28;20045;-44
2022/03/16 13:14:13;;;;;;;20.73;17.52;;;12.40;96.70;;;;;;5036259;28;20500;-48
2022/03/16 13:16:40;;;;;;;22.17;17.83;;;12.40;96.80;;;;;;5036690;28;20124;-45
2022/03/16 13:19:07;;;;;;;19.65;17.65;;;12.40;96.90;;;;;;5037839;28;20469;-46
2022/03/16 13:21:34;;;;;;;19.75;17.75;;;12.30;97.10;;;;;;5055162;28;20476;-49
2022/03/16 13:24:01;;;;;;;21.15;17.63;;;12.30;97.20;;;;;;5055497;28;20463;-48
2022/03/16 13:26:28;;;;;;;20.85;17.27;;;12.40;97.30;;;;;;5055477;28;20041;-46
2022/03/16 13:28:57;;;;;;;20.65;17.85;;;12.40;97.40;;;;;;5054307;28;20192;-49
2022/03/16 13:31:24;;;;;;;20.60;18.38;;;12.50;97.60;;;;;;5053966;28;20052;-51
2022/03/16 13:33:51;;;;;;;19.45;17.13;;;12.60;97.40;;;;;;5054832;28;20492;-50
2022/03/16 13:36:17;;;;;;;21.42;18.15;;;12.70;97.50;;;;;;5055386;28;20041;-48
2022/03/16 13:38:47;;;;;;;19.38;17.33;;;12.80;97.70;;;;;;5055248;28;20040;-50
2022/03/16 13:41:13;;;;;;;19.95;17.17;;;12.80;97.20;;;;;;5055197;28;20041;-47
2022/03/16 13:43:41;;;;;;;20.63;16.15;;;12.80;97.10;;;;;;5054001;28;20454;-48
2022/03/16 13:46:13;;;;;;;17.67;15.80;;;12.80;97.00;;;;;;5051363;28;20052;-47
2022/03/16 13:48:39;;;;;;;21.40;16.17;;;12.70;97.20;;;;;;5035265;28;20443;-50
2022/03/16 13:51:06;;;;;;;21.83;15.73;;;12.70;97.10;;;;;;5047660;28;20049;-55
2022/03/16 13:53:33;;;;;;;19.20;16.08;;;12.60;97.00;;;;;;5054908;28;20045;-50
2022/03/16 13:55:59;;;;;;;21.63;16.48;;;12.60;96.90;;;;;;5054704;28;20037;-55
2022/03/16 13:58:26;;;;;;;18.30;16.25;;;12.60;97.00;;;;;;5053896;28;20041;-51
2022/03/16 14:00:53;;;;;;;18.85;16.90;;;12.60;97.20;;;;;;5036050;28;20033;-48
2022/03/16 14:03:21;;;;;;;18.30;16.15;;;12.60;97.10;;;;;;5035601;28;20042;-49
2022/03/16 14:05:49;;;;;;;21.10;16.63;;;12.60;97.10;;;;;;5035415;28;20496;-49
2022/03/16 14:08:16;;;;;;;17.75;15.95;;;12.60;96.90;;;;;;5035059;28;20049;-53
2022/03/16 14:10:42;;;;;;;24.83;16.95;;;12.60;97.20;;;;;;5046239;28;20464;-50
2022/03/16 14:13:09;;;;;;;20.73;16.90;;;12.60;97.20;;;;;;5054492;28;20056;-48
2022/03/16 14:15:36;;;;;;;18.75;16.40;;;12.60;97.10;;;;;;5036414;28;20045;-46
2022/03/16 14:18:04;;;;;;;21.35;17.17;;;12.60;97.10;;;;;;5048708;28;20033;-49
2022/03/16 14:20:31;;;;;;;22.65;16.25;;;12.60;97.10;;;;;;5054179;28;20041;-46
2022/03/16 14:22:57;;;;;;;19.35;16.45;;;12.60;97.10;;;;;;5054427;28;20041;-54
2022/03/16 14:25:24;;;;;;;20.67;17.35;;;12.60;97.00;;;;;;5054256;28;20041;-55
2022/03/16 14:27:52;;;;;;;22.15;17.98;;;12.50;96.90;;;;;;5053437;28;20043;-51
2022/03/16 14:30:19;;;;;;;23.25;17.42;;;12.50;97.00;;;;;;5053869;28;20450;-49
2022/03/16 14:32:47;;;;;;;24.50;17.50;;;12.50;97.00;;;;;;5054153;28;20045;-50
2022/03/16 14:35:15;;;;;;;19.17;16.20;;;12.50;96.70;;;;;;5041992;28;20116;-51
2022/03/16 14:37:42;;;;;;;21.60;17.98;;;12.60;97.00;;;;;;5034906;28;20055;-50
2022/03/16 14:40:08;;;;;;;24.92;18.95;;;12.50;96.90;;;;;;5034907;28;20068;-49
2022/03/16 14:42:35;;;;;;;20.27;18.13;;;12.50;96.90;;;;;;5036848;28;20055;-52
2022/03/16 14:45:02;;;;;;;26.08;20.23;;;12.50;96.80;;;;;;5052689;28;20083;-47
2022/03/16 14:47:29;;;;;;;22.50;17.42;;;12.50;96.90;;;;;;5053924;28;20040;-49
2022/03/16 14:49:58;;;;;;;21.45;19.25;;;12.50;96.90;;;;;;5052732;28;20120;-52
2022/03/16 14:52:25;;;;;;;22.67;18.98;;;12.50;96.90;;;;;;5053676;28;20116;-51
2022/03/16 14:54:52;;;;;;;26.10;19.40;;;12.50;96.90;;;;;;5053583;28;20037;-53
2022/03/16 14:57:19;;;;;;;25.65;20.10;;;12.50;97.00;;;;;;5051390;28;20056;-47
2022/03/16 14:59:46;;;;;;;24.15;20.45;;;12.50;96.90;;;;;;5052918;28;20583;-50
2022/03/16 15:02:13;;;;;;;23.05;20.55;;;12.50;96.90;;;;;;5053294;28;20095;-49
2022/03/16 15:04:42;;;;;;;22.10;19.70;;;12.60;97.00;;;;;;5052705;28;20072;-52
2022/03/16 15:07:09;;;;;;;27.38;19.98;;;12.60;97.00;;;;;;5047248;28;20041;-48
2022/03/16 15:09:35;;;;;;;21.50;19.20;;;12.60;96.90;;;;;;5034806;28;20459;-52
2022/03/16 15:12:02;;;;;;;23.38;19.88;;;12.60;96.90;;;;;;5033781;28;20099;-48
2022/03/16 15:14:29;;;;;;;23.65;19.80;;;12.60;96.80;;;;;;5043997;28;20044;-47
2022/03/16 15:16:56;;;;;;;23.60;20.33;;;12.60;96.90;;;;;;5051100;28;20061;-51
2022/03/16 15:19:22;;;;;;;25.67;20.35;;;12.60;96.90;;;;;;5051612;28;20111;-50
2022/03/16 15:21:50;;;;;;;21.88;18.90;;;12.60;97.00;;;;;;5052305;28;20033;-48
2022/03/16 15:24:16;;;;;;;22.00;18.20;;;12.60;96.90;;;;;;5052804;28;20045;-52
2022/03/16 15:26:44;;;;;;;28.98;18.98;;;12.60;96.80;;;;;;5051270;28;20060;-51
2022/03/16 15:29:11;;;;;;;29.25;20.70;;;12.60;96.80;;;;;;5052394;28;20069;-52
2022/03/16 15:31:38;;;;;;;23.08;18.00;;;12.60;96.80;;;;;;5052565;28;20037;-51
2022/03/16 15:34:05;;;;;;;25.58;17.60;;;12.50;96.90;;;;;;5052762;28;20068;-50
2022/03/16 15:36:31;;;;;;;24.45;19.33;;;12.50;97.00;;;;;;5043152;28;20045;-51
2022/03/16 15:38:58;;;;;;;27.92;18.50;;;12.50;96.90;;;;;;5032980;28;20473;-51
2022/03/16 15:44:10;;;;;;;25.60;19.65;;;12.50;97.10;;;;;;5033439;28;20472;-55
2022/03/16 15:46:37;;;;;;;22.73;20.27;;;12.40;97.20;;;;;;5033469;28;20046;-50
2022/03/16 15:49:21;;;;;;;27.30;20.30;;;12.40;97.10;;;;;;5046133;28;20070;-51
2022/03/16 15:51:48;;;;;;;23.35;19.75;;;12.40;97.20;;;;;;5033086;28;20438;-53
2022/03/16 15:54:15;;;;;;;24.50;19.75;;;12.40;97.30;;;;;;5033186;28;20503;-52
2022/03/16 15:56:42;;;;;;;30.08;21.30;;;12.40;97.80;;;;;;5041378;28;20487;-53
2022/03/16 15:59:09;;;;;;;26.08;21.88;;;12.30;98.10;;;;;;5033195;28;20037;-50
2022/03/16 16:01:36;;;;;;;25.48;20.88;;;12.30;98.30;;;;;;5032823;28;20041;-49
2022/03/16 16:04:03;;;;;;;27.30;22.00;;;12.20;98.50;;;;;;5031860;28;20125;-48
2022/03/16 16:06:29;;;;;;;25.75;20.98;;;12.20;98.80;;;;;;5033275;28;20068;-51
2022/03/16 16:08:59;;;;;;;27.65;21.48;;;12.20;98.90;;;;;;5033049;28;20052;-50
2022/03/16 16:11:25;;;;;;;26.42;20.75;;;12.10;99.00;;;;;;5035113;28;20046;-50
2022/03/16 16:13:52;;;;;;;26.98;21.65;;;12.10;99.20;;;;;;5045719;28;20103;-53
2022/03/16 16:16:19;;;;;;;24.45;20.30;;;12.10;99.40;;;;;;5045450;28;20563;-49
2022/03/16 16:18:52;;;;;;;23.25;20.88;;;12.10;99.20;;;;;;5052167;28;20048;-49
2022/03/16 16:21:20;;;;;;;23.85;20.42;;;12.10;99.30;;;;;;5048988;28;20048;-48
2022/03/16 16:23:47;;;;;;;22.88;20.05;;;12.00;99.20;;;;;;5051860;28;20484;-54
2022/03/16 16:26:14;;;;;;;21.67;19.33;;;12.00;99.40;;;;;;5050542;28;20040;-57
2022/03/16 16:28:41;;;;;;;25.17;20.55;;;12.00;99.40;;;;;;5052322;28;20052;-49
2022/03/16 16:31:08;;;;;;;22.65;20.23;;;12.00;99.50;;;;;;5044384;28;20045;-55
2022/03/16 16:33:35;;;;;;;22.50;19.83;;;12.00;99.60;;;;;;5032717;28;20049;-51
2022/03/16 16:36:04;;;;;;;21.65;18.85;;;12.00;99.80;;;;;;5037474;28;20116;-50
2022/03/16 16:38:31;;;;;;;21.00;18.77;;;11.90;99.80;;;;;;5036847;28;20045;-49
2022/03/16 16:40:58;;;;;;;20.58;18.38;;;11.90;99.90;;;;;;5036577;28;20107;-53
2022/03/16 16:43:24;;;;;;;20.55;17.83;;;11.90;99.90;;;;;;5054480;28;20393;-51
2022/03/16 16:45:51;;;;;;;21.70;17.90;;;11.80;99.90;;;;;;5055864;28;20091;-51
2022/03/16 16:48:18;;;;;;;22.42;18.60;;;11.90;99.90;;;;;;5054061;28;20511;-46
2022/03/16 16:50:45;;;;;;;19.73;17.60;;;11.90;99.90;;;;;;5055083;28;20044;-51
2022/03/16 16:53:14;;;;;;;20.77;16.77;;;11.80;99.90;;;;;;5056806;28;20052;-53
2022/03/16 16:55:40;;;;;;;18.45;16.58;;;11.80;99.90;;;;;;5038674;28;20038;-52
2022/03/16 16:58:07;;;;;;;20.05;17.95;;;11.70;99.90;;;;;;5036463;28;20053;-49
2022/03/16 17:00:34;;;;;;;19.23;17.23;;;11.80;99.90;;;;;;5037304;28;20441;-48
2022/03/16 17:03:01;;;;;;;18.10;16.25;;;11.70;99.90;;;;;;5047671;28;20116;-53
2022/03/16 17:05:30;;;;;;;19.17;17.30;;;11.70;99.90;;;;;;5036250;28;20121;-52
2022/03/16 17:07:57;;;;;;;19.05;16.08;;;11.70;99.90;;;;;;5035012;28;20496;-49
2022/03/16 17:10:24;;;;;;;18.67;16.83;;;11.70;99.90;;;;;;5036182;28;20061;-53
2022/03/16 17:12:51;;;;;;;19.27;17.38;;;11.70;99.90;;;;;;5049681;28;20049;-50
2022/03/16 17:15:18;;;;;;;24.90;19.95;;;11.70;99.90;;;;;;5045993;28;20088;-55
2022/03/16 17:17:49;;;;;;;17.27;15.40;;;11.60;99.90;;;;;;5036162;28;20354;-51
2022/03/16 17:20:18;;;;;;;17.73;15.85;;;11.60;99.90;;;;;;5036005;28;20049;-53
2022/03/16 17:22:45;;;;;;;16.27;14.57;;;11.60;99.90;;;;;;5035776;28;20080;-48
2022/03/16 17:25:11;;;;;;;14.82;13.32;;;11.60;99.90;;;;;;5036437;28;20374;-50
2022/03/16 17:27:38;;;;;;;12.65;11.45;;;11.60;99.90;;;;;;5036410;28;20044;-48
2022/03/16 17:30:05;;;;;;;13.00;10.20;;;11.60;99.90;;;;;;5034996;28;20041;-49
2022/03/16 17:32:32;;;;;;;9.68;8.77;;;11.50;99.90;;;;;;5036027;28;20088;-45
2022/03/16 17:34:59;;;;;;;10.50;9.50;;;11.50;99.90;;;;;;5035761;28;20042;-45
2022/03/16 17:37:26;;;;;;;12.18;10.18;;;11.50;99.90;;;;;;5047688;28;20121;-44
2022/03/16 17:39:52;;;;;;;12.70;10.70;;;11.50;99.90;;;;;;5035779;28;20045;-45
2022/03/16 17:47:50;;;;;;;9.23;7.18;;;11.20;99.90;;;;;;5053948;28;20049;-48
2022/03/16 17:50:17;;;;;;;7.30;6.57;;;11.10;99.90;;;;;;5055095;28;20119;-46
2022/03/16 17:52:55;;;;;;;7.40;6.63;;;11.00;99.90;;;;;;5055133;28;20542;-43
2022/03/16 17:58:11;;;;;;;7.28;5.22;;;10.90;99.90;;;;;;5036867;28;20045;-47
2022/03/16 18:00:38;;;;;;;7.30;5.93;;;10.80;99.90;;;;;;5046180;28;20159;-48
2022/03/16 18:03:05;;;;;;;5.47;4.78;;;10.80;99.90;;;;;;5042566;28;20392;-46
2022/03/16 18:05:32;;;;;;;5.47;4.88;;;10.70;99.90;;;;;;5034991;28;20401;-50
2022/03/16 18:07:58;;;;;;;6.57;5.28;;;10.60;99.90;;;;;;5035063;28;20041;-44
2022/03/16 18:13:14;;;;;;;6.00;5.40;;;10.60;99.90;;;;;;5034869;28;20076;-46
2022/03/16 18:15:41;;;;;;;6.10;5.50;;;10.50;99.90;;;;;;5034892;28;20046;-47
2022/03/16 18:18:08;;;;;;;8.52;5.95;;;10.60;99.90;;;;;;5035038;28;20034;-50
2022/03/16 18:20:35;;;;;;;7.07;5.60;;;10.50;99.90;;;;;;5034680;28;20137;-53
2022/03/16 18:23:02;;;;;;;7.68;4.45;;;10.50;99.90;;;;;;5035139;28;20050;-44
2022/03/16 18:25:29;;;;;;;4.20;3.80;;;10.40;99.90;;;;;;5034949;28;20049;-51
2022/03/16 18:27:55;;;;;;;6.72;4.38;;;10.40;99.90;;;;;;5037374;28;20132;-53
2022/03/16 18:30:22;;;;;;;6.18;4.70;;;10.30;99.90;;;;;;5053931;28;20496;-50
2022/03/16 18:32:49;;;;;;;5.70;4.53;;;10.30;99.90;;;;;;5053766;28;20123;-47
2022/03/16 18:35:15;;;;;;;6.38;4.78;;;10.20;99.90;;;;;;5053751;28;20507;-49
2022/03/16 18:37:43;;;;;;;7.57;4.50;;;10.10;99.90;;;;;;5053781;28;20041;-48
2022/03/16 18:40:10;;;;;;;5.18;4.13;;;10.10;99.90;;;;;;5053824;28;20482;-46
2022/03/16 18:42:38;;;;;;;4.85;4.35;;;10.00;99.90;;;;;;5053426;28;20037;-49
2022/03/16 18:45:05;;;;;;;6.03;4.80;;;9.90;99.90;;;;;;5053937;28;20044;-46
2022/03/16 18:47:31;;;;;;;6.10;5.18;;;9.80;99.90;;;;;;5052625;28;20045;-51
2022/03/16 18:49:58;;;;;;;7.68;6.05;;;9.70;99.90;;;;;;5053548;28;20079;-51
2022/03/16 18:52:25;;;;;;;8.30;6.57;;;9.70;99.90;;;;;;5053692;28;20053;-50
2022/03/16 18:54:52;;;;;;;8.10;6.80;;;9.60;99.90;;;;;;5053741;28;20044;-52
2022/03/16 18:57:22;;;;;;;7.28;6.13;;;9.60;99.90;;;;;;5052960;28;20065;-47
2022/03/16 18:59:52;;;;;;;10.90;6.78;;;9.50;99.90;;;;;;5053619;28;20057;-49
2022/03/16 19:02:25;;;;;;;7.10;6.13;;;9.40;99.90;;;;;;5053904;28;20455;-50
2022/03/16 19:04:57;;;;;;;8.43;7.13;;;9.30;99.90;;;;;;5053340;28;20053;-46
2022/03/16 19:07:24;;;;;;;8.10;6.38;;;9.30;99.90;;;;;;5053104;28;20143;-52
2022/03/16 19:10:05;;;;;;;9.68;7.78;;;9.20;99.90;;;;;;5042798;28;20394;-46
2022/03/16 19:15:20;;;;;;;8.00;6.78;;;9.20;99.90;;;;;;5042770;28;20034;-45
2022/03/16 19:17:47;;;;;;;10.45;7.60;;;9.10;99.90;;;;;;5049849;28;20392;-49
2022/03/16 19:20:17;;;;;;;8.20;7.40;;;9.10;99.90;;;;;;5049420;28;20056;-49
2022/03/16 19:22:55;;;;;;;9.50;7.95;;;9.00;99.90;;;;;;5034387;28;20069;-48
2022/03/16 19:25:32;;;;;;;10.50;8.68;;;9.00;99.90;;;;;;5047855;28;20052;-46
2022/03/16 19:27:59;;;;;;;11.82;9.05;;;8.90;99.90;;;;;;5052930;28;20049;-46
2022/03/16 19:30:28;;;;;;;10.70;8.50;;;8.90;99.90;;;;;;5052705;28;20072;-47
2022/03/16 19:32:58;;;;;;;10.48;9.38;;;8.90;99.90;;;;;;5053805;28;20415;-47
2022/03/16 19:35:27;;;;;;;13.23;9.68;;;8.90;99.90;;;;;;5035490;28;20079;-45
2022/03/16 19:37:55;;;;;;;15.43;10.45;;;8.80;99.90;;;;;;5053278;28;20128;-47
2022/03/16 19:40:24;;;;;;;13.57;10.55;;;8.80;99.90;;;;;;5051691;28;20037;-48
2022/03/16 19:42:52;;;;;;;12.75;11.15;;;8.80;99.90;;;;;;5052979;28;20041;-51
2022/03/16 19:45:19;;;;;;;15.18;11.65;;;8.80;99.90;;;;;;5052891;28;20044;-48
2022/03/16 19:50:34;;;;;;;13.40;10.13;;;8.80;99.90;;;;;;5049289;28;20053;-50
2022/03/16 19:53:00;;;;;;;12.18;9.77;;;8.80;99.90;;;;;;5052744;28;20090;-50
2022/03/16 19:55:27;;;;;;;10.88;8.88;;;8.70;99.90;;;;;;5048803;28;20071;-50
2022/03/16 19:57:57;;;;;;;7.90;6.68;;;8.70;99.90;;;;;;5033804;28;20049;-47
2022/03/16 20:00:30;;;;;;;9.25;6.40;;;8.70;99.90;;;;;;5032420;28;20064;-49
2022/03/16 20:02:57;;;;;;;8.15;6.07;;;8.70;99.90;;;;;;5033435;28;20037;-49
2022/03/16 20:05:24;;;;;;;7.35;5.93;;;8.60;99.90;;;;;;5032461;28;20045;-50
2022/03/16 20:07:52;;;;;;;9.85;6.15;;;8.60;99.90;;;;;;5033448;28;20465;-44
2022/03/16 20:10:19;;;;;;;7.07;5.78;;;8.50;99.90;;;;;;5033310;28;20052;-51
2022/03/16 20:12:46;;;;;;;7.15;5.38;;;8.50;99.90;;;;;;5033176;28;20452;-52
2022/03/16 20:15:13;;;;;;;6.55;4.55;;;8.50;99.90;;;;;;5032941;28;20037;-53
2022/03/16 20:17:40;;;;;;;5.43;3.78;;;8.50;99.90;;;;;;5049399;28;20069;-50
2022/03/16 20:20:11;;;;;;;4.10;3.35;;;8.40;99.90;;;;;;5052523;28;20044;-51
2022/03/16 20:22:39;;;;;;;5.30;3.30;;;8.40;99.90;;;;;;5033844;28;20051;-47
2022/03/16 20:25:06;;;;;;;4.70;3.22;;;8.40;99.90;;;;;;5032072;28;20068;-50
2022/03/16 20:27:32;;;;;;;6.45;4.25;;;8.40;99.90;;;;;;5033141;28;20049;-46
2022/03/16 20:30:00;;;;;;;4.35;3.25;;;8.40;99.90;;;;;;5033379;28;20045;-50
2022/03/16 20:32:26;;;;;;;4.65;3.15;;;8.40;99.90;;;;;;5033496;28;20042;-45
2022/03/16 20:34:53;;;;;;;5.22;3.05;;;8.40;99.90;;;;;;5033340;28;20065;-51
2022/03/16 20:37:21;;;;;;;5.00;3.40;;;8.40;99.90;;;;;;5047151;28;20055;-47
2022/03/16 20:39:48;;;;;;;5.20;3.72;;;8.40;99.90;;;;;;5050773;28;20107;-47
2022/03/16 20:42:15;;;;;;;6.47;3.35;;;8.30;99.90;;;;;;5051605;28;20033;-47
2022/03/16 20:44:41;;;;;;;4.97;3.63;;;8.40;99.90;;;;;;5052310;28;20101;-47